Terminal Aerodrome Forecast
Issued by NWS

Home | Current Version | Previous Version | Text Only | Print | Product List | Glossary On
Versions: 1 2 3 4 5 6 7 8 9 10 11 12 13 14 15 16 17 18 19 20 21 22 23 24 25 26 27 28
000
FTUS43 KDLH 161300 AAA
TAFBRD
TAF AMD
KBRD 161359Z 1614/1712 35014G20KT P6SM VCSH OVC017
      TEMPO 1614/1618 5SM -SN OVC011
     FM161800 34012KT P6SM VCSH OVC020
     FM162000 32009KT P6SM VCSH OVC025
     FM170000 33009KT P6SM BKN020=

USA.gov is the U.S. government's official web portal to all federal, state and local government web resources and services.